Time;durP1;ratioP1;P1;durP2;ratioP2;P2;SDS_P1;SDS_P2;PMS_P1;PMS_P2;Temp;Humidity;BMP_temperature;BMP_pressure;BME280_temperature;BME280_humidity;BME280_pressure;Samples;Min_cycle;Max_cycle;Signal;HPM_P1;HPM_P2
2023/06/29 00:01:26;;;;;;;61.42;39.95;;;;;;;;;;5087548;28;20547;-70
2023/06/29 00:03:52;;;;;;;58.33;39.42;;;;;;;;;;5087605;28;20453;-70
2023/06/29 00:06:18;;;;;;;53.95;38.03;;;18.70;99.90;;;;;;5089391;28;20433;-70
2023/06/29 00:08:44;;;;;;;58.90;38.63;;;18.90;99.90;;;;;;5092632;28;20516;-70
2023/06/29 00:11:10;;;;;;;55.37;39.07;;;;;;;;;;5075297;28;20567;-70
2023/06/29 00:13:36;;;;;;;55.40;38.45;;;;;;;;;;5093696;28;20434;-70
2023/06/29 00:16:02;;;;;;;56.23;38.00;;;;;;;;;;5073288;28;20415;-70
2023/06/29 00:18:28;;;;;;;59.65;38.75;;;;;;;;;;5089819;28;20506;-70
2023/06/29 00:20:54;;;;;;;57.60;39.08;;;;;;;;;;5090759;28;20422;-70
2023/06/29 00:23:21;;;;;;;58.40;39.33;;;;;;;;;;5091600;28;20501;-70
2023/06/29 00:25:47;;;;;;;57.70;39.15;;;18.80;99.90;;;;;;5093270;28;20800;-70
2023/06/29 00:28:14;;;;;;;60.08;38.28;;;;;;;;;;5090358;28;20496;-70
2023/06/29 00:30:40;;;;;;;58.97;38.75;;;;;;;;;;5091534;28;20819;-70
2023/06/29 00:33:06;;;;;;;55.88;38.10;;;;;;;;;;5089161;28;20418;-70
2023/06/29 00:35:32;;;;;;;54.28;38.47;;;;;;;;;;5072725;28;20402;-70
2023/06/29 00:37:58;;;;;;;57.88;37.95;;;;;;;;;;5085723;28;20428;-70
2023/06/29 00:40:25;;;;;;;55.67;38.20;;;;;;;;;;5090443;28;20453;-70
2023/06/29 00:42:51;;;;;;;56.35;38.97;;;;;;;;;;5091548;28;20415;-70
2023/06/29 00:45:17;;;;;;;57.53;38.10;;;;;;;;;;5091574;28;20459;-70
2023/06/29 00:47:42;;;;;;;57.55;38.95;;;18.90;99.90;;;;;;5091802;28;20424;-70
2023/06/29 00:50:09;;;;;;;56.72;38.75;;;18.60;99.90;;;;;;5091135;28;20811;-70
2023/06/29 00:52:35;;;;;;;56.92;39.10;;;;;;;;;;5091282;28;20475;-70
2023/06/29 00:55:01;;;;;;;60.95;38.53;;;;;;;;;;5075786;28;20405;-70
2023/06/29 00:57:29;;;;;;;59.55;39.35;;;;;;;;;;5090604;28;20433;-70
2023/06/29 00:59:59;;;;;;;55.88;38.20;;;;;;;;;;5090960;28;20929;-70
2023/06/29 01:02:31;;;;;;;56.45;39.10;;;19.10;99.90;;;;;;5075283;28;20415;-70
2023/06/29 01:04:58;;;;;;;59.30;37.83;;;;;;;;;;5055509;28;20407;-70
2023/06/29 01:07:37;;;;;;;58.58;38.42;;;18.70;99.90;;;;;;5077293;28;20422;-70
2023/06/29 01:10:05;;;;;;;58.40;38.10;;;18.70;99.90;;;;;;5091408;28;20414;-70
2023/06/29 01:12:33;;;;;;;53.87;36.90;;;;;;;;;;5091330;28;20420;-71
2023/06/29 01:14:59;;;;;;;55.83;38.00;;;;;;;;;;5092507;28;20406;-70
2023/06/29 01:17:28;;;;;;;54.43;36.73;;;;;;;;;;5092873;28;20441;-70
2023/06/29 01:19:55;;;;;;;54.78;37.50;;;;;;;;;;5072641;28;20408;-70
2023/06/29 01:22:38;;;;;;;54.58;37.30;;;;;;;;;;5090277;28;20421;-70
2023/06/29 01:25:04;;;;;;;57.28;37.72;;;;;;;;;;5092061;28;20889;-70
2023/06/29 01:27:30;;;;;;;55.70;37.58;;;18.70;99.90;;;;;;5091028;28;20562;-70
2023/06/29 01:30:00;;;;;;;56.70;37.40;;;;;;;;;;5089983;28;20932;-71
2023/06/29 01:32:33;;;;;;;54.55;36.80;;;;;;;;;;5089209;28;20418;-70
2023/06/29 01:35:00;;;;;;;56.53;37.67;;;;;;;;;;5088216;28;20421;-70
2023/06/29 01:37:48;;;;;;;54.28;36.47;;;18.70;99.90;;;;;;5074670;28;20931;-70
2023/06/29 01:40:16;;;;;;;52.80;37.07;;;;;;;;;;5072609;28;20425;-70
2023/06/29 01:42:43;;;;;;;52.08;36.30;;;18.60;99.90;;;;;;5072867;28;20917;-70
2023/06/29 01:45:09;;;;;;;51.17;36.97;;;;;;;;;;5092771;28;20401;-70
2023/06/29 01:47:36;;;;;;;55.72;37.58;;;;;;;;;;5089600;28;20426;-70
2023/06/29 01:50:02;;;;;;;52.45;36.50;;;;;;;;;;5089979;28;20406;-70
2023/06/29 01:52:28;;;;;;;57.35;37.15;;;18.60;99.90;;;;;;5082390;28;21052;-70
2023/06/29 01:54:54;;;;;;;51.78;36.67;;;;;;;;;;5083004;28;20435;-70
2023/06/29 01:57:20;;;;;;;59.53;38.58;;;;;;;;;;5073316;28;20453;-70
2023/06/29 01:59:46;;;;;;;59.03;37.20;;;;;;;;;;5076902;28;20419;-70
2023/06/29 02:02:12;;;;;;;53.42;35.67;;;18.70;99.90;;;;;;5088087;28;20406;-70
2023/06/29 02:04:38;;;;;;;53.40;37.13;;;;;;;;;;5072565;28;20497;-70
2023/06/29 02:07:05;;;;;;;51.88;35.22;;;;;;;;;;5091198;28;20917;-70
2023/06/29 02:09:31;;;;;;;52.53;35.97;;;;;;;;;;5089555;28;20425;-70
2023/06/29 02:11:57;;;;;;;50.77;35.67;;;;;;;;;;5091552;28;20414;-70
2023/06/29 02:14:23;;;;;;;49.08;34.80;;;;;;;;;;5089656;28;20409;-70
2023/06/29 02:16:51;;;;;;;51.35;35.58;;;18.40;99.90;;;;;;5074126;28;20424;-70
2023/06/29 02:19:17;;;;;;;48.15;35.20;;;18.80;99.90;;;;;;5088052;28;20445;-70
2023/06/29 02:21:43;;;;;;;50.08;34.97;;;;;;;;;;5089949;28;20437;-70
2023/06/29 02:24:09;;;;;;;49.38;34.13;;;;;;;;;;5073592;28;20394;-70
2023/06/29 02:26:35;;;;;;;53.38;34.38;;;;;;;;;;5080630;28;20406;-70
2023/06/29 02:29:01;;;;;;;46.83;33.10;;;;;;;;;;5074703;28;20425;-70
2023/06/29 02:31:26;;;;;;;49.40;32.45;;;18.60;99.90;;;;;;5090186;28;20839;-70
2023/06/29 02:33:53;;;;;;;45.85;31.80;;;;;;;;;;5057390;28;20442;-70
2023/06/29 02:36:21;;;;;;;47.42;33.38;;;18.50;99.90;;;;;;5088022;28;20453;-70
2023/06/29 02:38:47;;;;;;;46.42;33.13;;;18.70;99.90;;;;;;5089241;28;20917;-70
2023/06/29 02:41:14;;;;;;;49.13;34.28;;;;;;;;;;5068462;28;20826;-70
2023/06/29 02:43:39;;;;;;;47.85;33.67;;;18.90;99.90;;;;;;5103561;28;20412;-70
2023/06/29 02:46:05;;;;;;;52.75;33.65;;;18.60;99.90;;;;;;5089251;28;20504;-70
2023/06/29 02:48:30;;;;;;;46.70;32.30;;;18.60;99.90;;;;;;5089402;28;20429;-70
2023/06/29 02:50:57;;;;;;;49.63;33.07;;;;;;;;;;5089968;28;20905;-70
2023/06/29 02:53:23;;;;;;;46.23;31.70;;;;;;;;;;5089263;28;20414;-70
2023/06/29 02:55:49;;;;;;;46.97;32.47;;;;;;;;;;5106434;28;20769;-70
2023/06/29 02:58:15;;;;;;;46.78;30.65;;;;;;;;;;5089645;28;20746;-70
2023/06/29 03:00:41;;;;;;;45.72;31.38;;;;;;;;;;5106534;28;20492;-70
2023/06/29 03:03:07;;;;;;;48.03;30.45;;;;;;;;;;5090675;28;20421;-70
2023/06/29 03:05:33;;;;;;;44.78;30.80;;;18.60;99.90;;;;;;5072584;28;20421;-70
2023/06/29 03:07:59;;;;;;;45.17;30.00;;;;;;;;;;5071024;28;20490;-70
2023/06/29 03:10:25;;;;;;;44.90;30.95;;;;;;;;;;5088722;28;20429;-70
2023/06/29 03:12:51;;;;;;;42.07;29.77;;;18.80;99.90;;;;;;5073751;28;20485;-70
2023/06/29 03:15:17;;;;;;;41.63;28.93;;;;;;;;;;5088613;28;20493;-70
2023/06/29 03:17:43;;;;;;;38.57;28.77;;;18.40;99.90;;;;;;5079757;28;20508;-70
2023/06/29 03:20:09;;;;;;;39.97;29.10;;;;;;;;;;5081818;28;20467;-70
2023/06/29 03:22:35;;;;;;;42.97;30.15;;;;;;;;;;5090280;28;20401;-70
2023/06/29 03:25:01;;;;;;;43.28;30.30;;;;;;;;;;5087836;28;20506;-70
2023/06/29 03:27:27;;;;;;;42.95;29.33;;;;;;;;;;5065138;28;20454;-70
2023/06/29 03:29:54;;;;;;;42.00;28.75;;;;;;;;;;5083634;28;20956;-70
2023/06/29 03:32:20;;;;;;;42.17;28.92;;;;;;;;;;5090024;28;20398;-70
2023/06/29 03:34:46;;;;;;;38.13;28.67;;;;;;;;;;5088380;28;20500;-70
2023/06/29 03:37:11;;;;;;;41.65;29.40;;;18.60;99.90;;;;;;5090260;28;20405;-70
2023/06/29 03:39:37;;;;;;;45.40;28.63;;;18.30;99.90;;;;;;5085106;28;20778;-70
2023/06/29 03:42:03;;;;;;;40.77;28.20;;;;;;;;;;5091435;28;20406;-70
2023/06/29 03:44:29;;;;;;;37.37;28.87;;;;;;;;;;5089982;28;20436;-70
2023/06/29 03:46:55;;;;;;;42.25;29.15;;;;;;;;;;5090020;28;20758;-70
2023/06/29 03:49:21;;;;;;;44.08;29.15;;;18.50;99.90;;;;;;5085452;28;20503;-70
2023/06/29 03:51:47;;;;;;;40.23;27.60;;;;;;;;;;5085117;28;20754;-69
2023/06/29 03:54:13;;;;;;;42.15;28.30;;;18.50;99.90;;;;;;5085574;28;20948;-69
2023/06/29 03:56:39;;;;;;;41.10;27.33;;;;;;;;;;5067962;28;20501;-69
2023/06/29 03:59:05;;;;;;;39.97;27.80;;;;;;;;;;5083951;28;20636;-69
2023/06/29 04:01:31;;;;;;;36.70;27.30;;;;;;;;;;5087401;28;20422;-69
2023/06/29 04:03:57;;;;;;;38.83;27.20;;;;;;;;;;5079021;28;20418;-69
2023/06/29 04:06:23;;;;;;;36.75;26.02;;;18.60;99.90;;;;;;5086486;28;20406;-69
2023/06/29 04:08:49;;;;;;;39.85;27.00;;;;;;;;;;5081961;28;20523;-70
2023/06/29 04:11:18;;;;;;;37.17;26.17;;;;;;;;;;5085005;28;20431;-69
2023/06/29 04:13:49;;;;;;;36.33;25.57;;;;;;;;;;5054031;28;20396;-70
2023/06/29 04:16:15;;;;;;;35.20;25.13;;;18.60;99.90;;;;;;5077650;28;20430;-71
2023/06/29 04:18:40;;;;;;;36.45;26.17;;;18.60;99.90;;;;;;5087570;28;20414;-68
2023/06/29 04:21:07;;;;;;;36.35;25.98;;;;;;;;;;5073941;28;20453;-70
2023/06/29 04:23:33;;;;;;;37.17;25.15;;;18.50;99.90;;;;;;5092257;28;20995;-71
2023/06/29 04:26:02;;;;;;;35.78;24.58;;;;;;;;;;5069470;28;20505;-68
2023/06/29 04:28:29;;;;;;;36.53;24.27;;;;;;;;;;5092232;28;20422;-68
2023/06/29 04:30:55;;;;;;;34.78;25.05;;;;;;;;;;5089846;28;20546;-68
2023/06/29 04:33:21;;;;;;;33.40;24.17;;;18.80;99.90;;;;;;5093176;28;20394;-69
2023/06/29 04:35:49;;;;;;;34.47;23.50;;;;;;;;;;5094352;28;20400;-70
2023/06/29 04:38:15;;;;;;;33.67;23.30;;;;;;;;;;5090330;28;20421;-70
2023/06/29 04:40:42;;;;;;;34.30;23.50;;;;;;;;;;5091922;28;20453;-70
2023/06/29 04:43:08;;;;;;;36.10;23.65;;;;;;;;;;5078687;28;20412;-70
2023/06/29 04:45:34;;;;;;;32.42;22.55;;;18.80;99.90;;;;;;5072700;28;20428;-70
2023/06/29 04:48:00;;;;;;;29.20;22.55;;;19.00;99.90;;;;;;5075800;28;20470;-70
2023/06/29 04:50:31;;;;;;;31.75;22.52;;;19.10;99.90;;;;;;5089407;28;20932;-70
2023/06/29 04:53:09;;;;;;;31.70;23.48;;;18.80;99.90;;;;;;5091187;28;20739;-71
2023/06/29 04:55:36;;;;;;;29.58;22.38;;;;;;;;;;5092563;28;20917;-70
2023/06/29 04:58:03;;;;;;;32.63;22.73;;;;;;;;;;5087993;28;20422;-70
2023/06/29 05:00:29;;;;;;;30.07;21.03;;;;;;;;;;5088814;28;20928;-70
2023/06/29 05:02:55;;;;;;;30.63;21.30;;;;;;;;;;5071625;28;20913;-70
2023/06/29 05:05:22;;;;;;;31.45;21.92;;;;;;;;;;5075676;28;20409;-70
2023/06/29 05:07:48;;;;;;;28.35;20.80;;;;;;;;;;5089134;28;20453;-70
2023/06/29 05:10:14;;;;;;;30.95;21.67;;;;;;;;;;5087274;28;20425;-70
2023/06/29 05:12:40;;;;;;;30.92;21.45;;;;;;;;;;5088815;28;20956;-70
2023/06/29 05:15:07;;;;;;;28.55;20.73;;;;;;;;;;5073104;28;20974;-70
2023/06/29 05:17:33;;;;;;;28.52;20.38;;;;;;;;;;5084442;28;20479;-70
2023/06/29 05:19:59;;;;;;;32.07;21.00;;;;;;;;;;5085554;28;20419;-68
2023/06/29 05:22:25;;;;;;;27.73;20.10;;;;;;;;;;5088135;28;20409;-68
2023/06/29 05:24:51;;;;;;;27.23;20.25;;;;;;;;;;5092619;28;20412;-68
2023/06/29 05:27:16;;;;;;;31.27;21.08;;;19.50;99.90;;;;;;5086367;28;20491;-69
2023/06/29 05:29:42;;;;;;;29.30;20.00;;;19.90;99.90;;;;;;5089796;28;20421;-69
2023/06/29 05:32:08;;;;;;;30.13;20.90;;;;;;;;;;5091000;28;20405;-68
2023/06/29 05:34:35;;;;;;;28.77;20.05;;;;;;;;;;5071910;28;20471;-68
2023/06/29 05:37:01;;;;;;;28.25;20.65;;;19.50;99.90;;;;;;5082031;28;20855;-68
2023/06/29 05:39:27;;;;;;;27.97;20.07;;;;;;;;;;5072796;28;20399;-68
2023/06/29 05:41:53;;;;;;;29.73;19.60;;;;;;;;;;5076382;28;20423;-69
2023/06/29 05:44:20;;;;;;;29.42;20.08;;;;;;;;;;5084595;28;20423;-70
2023/06/29 05:46:46;;;;;;;30.40;19.90;;;;;;;;;;5085687;28;20471;-70
2023/06/29 05:49:12;;;;;;;27.85;19.65;;;;;;;;;;5106369;28;20758;-70
2023/06/29 05:51:38;;;;;;;33.90;19.90;;;19.80;99.90;;;;;;5087900;28;20410;-69
2023/06/29 05:54:04;;;;;;;30.90;19.33;;;;;;;;;;5069570;28;20437;-69
2023/06/29 05:56:31;;;;;;;28.42;19.35;;;19.70;99.90;;;;;;5082079;28;20412;-69
2023/06/29 05:58:57;;;;;;;30.50;19.83;;;;;;;;;;5072141;28;20425;-69
2023/06/29 06:01:23;;;;;;;27.38;19.13;;;19.90;99.90;;;;;;5091317;28;20410;-70
2023/06/29 06:03:49;;;;;;;30.52;19.58;;;19.90;99.90;;;;;;5072932;28;20422;-70
2023/06/29 06:06:15;;;;;;;28.88;19.58;;;;;;;;;;5087630;28;20451;-70
2023/06/29 06:08:41;;;;;;;30.77;19.75;;;;;;;;;;5062042;28;20431;-70
2023/06/29 06:11:07;;;;;;;28.80;19.55;;;;;;;;;;5083745;28;20428;-70
2023/06/29 06:13:33;;;;;;;30.83;19.70;;;19.70;99.90;;;;;;5074186;28;20447;-70
2023/06/29 06:15:59;;;;;;;31.02;19.38;;;19.70;99.90;;;;;;5078565;28;20434;-71
2023/06/29 06:18:25;;;;;;;29.55;19.38;;;20.10;99.90;;;;;;5065197;28;20437;-71
2023/06/29 06:20:51;;;;;;;29.50;20.07;;;;;;;;;;5062777;28;20419;-70
2023/06/29 06:23:18;;;;;;;26.90;19.23;;;;;;;;;;5085509;28;20421;-70
2023/06/29 06:25:44;;;;;;;31.45;19.95;;;;;;;;;;5086174;28;20428;-70
2023/06/29 06:28:10;;;;;;;28.42;19.05;;;;;;;;;;5086563;28;20991;-71
2023/06/29 06:30:36;;;;;;;29.33;19.52;;;;;;;;;;5083912;28;22114;-71
2023/06/29 06:33:02;;;;;;;29.05;19.85;;;;;;;;;;5068247;28;20817;-71
2023/06/29 06:35:28;;;;;;;30.17;19.43;;;;;;;;;;5086772;28;20463;-71
2023/06/29 06:37:55;;;;;;;29.25;19.30;;;;;;;;;;5082579;28;20445;-71
2023/06/29 06:40:21;;;;;;;27.63;18.73;;;;;;;;;;5081393;28;20774;-71
2023/06/29 06:42:47;;;;;;;29.27;18.90;;;;;;;;;;5069805;28;20424;-70
2023/06/29 06:45:13;;;;;;;27.15;18.60;;;20.50;99.90;;;;;;5090778;28;21030;-70
2023/06/29 06:47:40;;;;;;;30.15;19.50;;;;;;;;;;5085603;28;20556;-71
2023/06/29 06:50:06;;;;;;;27.92;19.23;;;;;;;;;;5084012;28;20418;-71
2023/06/29 06:52:32;;;;;;;27.63;18.50;;;;;;;;;;5070296;28;20400;-71
2023/06/29 06:55:01;;;;;;;34.17;18.50;;;;;;;;;;5077952;28;20466;-71
2023/06/29 06:57:27;;;;;;;26.60;19.05;;;;;;;;;;5064585;28;20522;-70
2023/06/29 06:59:53;;;;;;;28.98;19.77;;;;;;;;;;5089480;28;20497;-70
2023/06/29 07:02:20;;;;;;;29.27;19.33;;;20.70;99.90;;;;;;5078919;28;20415;-70
2023/06/29 07:04:47;;;;;;;26.50;18.85;;;;;;;;;;5081571;28;20806;-70
2023/06/29 07:07:13;;;;;;;28.20;18.85;;;;;;;;;;5079139;28;20422;-71
2023/06/29 07:09:39;;;;;;;28.47;20.10;;;;;;;;;;5088772;28;20413;-71
2023/06/29 07:12:05;;;;;;;26.90;19.42;;;20.40;99.90;;;;;;5088280;28;20482;-71
2023/06/29 07:14:31;;;;;;;27.88;19.35;;;;;;;;;;5070470;28;20450;-71
2023/06/29 07:16:58;;;;;;;36.95;20.05;;;;;;;;;;5085975;28;20429;-71
2023/06/29 07:19:24;;;;;;;27.70;20.35;;;;;;;;;;5068872;28;21431;-70
2023/06/29 07:21:50;;;;;;;28.90;20.40;;;;;;;;;;5080184;28;20416;-70
2023/06/29 07:24:16;;;;;;;28.73;20.27;;;;;;;;;;5087646;28;20421;-70
2023/06/29 07:26:42;;;;;;;31.25;20.75;;;;;;;;;;5087046;28;20417;-70
2023/06/29 07:29:08;;;;;;;30.35;21.15;;;;;;;;;;5086722;28;20509;-70
2023/06/29 07:31:34;;;;;;;33.15;21.55;;;;;;;;;;5084876;28;20932;-71
2023/06/29 07:34:00;;;;;;;31.23;23.13;;;;;;;;;;5087188;28;21047;-71
2023/06/29 07:36:29;;;;;;;30.15;22.48;;;;;;;;;;5087063;28;20905;-70
2023/06/29 07:38:55;;;;;;;32.70;22.92;;;20.10;99.90;;;;;;5088539;28;20512;-71
2023/06/29 07:41:22;;;;;;;34.75;22.92;;;;;;;;;;5085054;28;20418;-71
2023/06/29 07:43:55;;;;;;;33.85;23.08;;;;;;;;;;5082596;28;20429;-71
2023/06/29 07:46:22;;;;;;;32.72;23.65;;;;;;;;;;5082720;28;20937;-71
2023/06/29 07:48:48;;;;;;;35.67;23.73;;;20.20;99.90;;;;;;5063577;28;20414;-71
2023/06/29 07:51:15;;;;;;;35.15;23.88;;;;;;;;;;5065134;28;20422;-70
2023/06/29 07:53:41;;;;;;;34.17;23.55;;;;;;;;;;5070896;28;20830;-71
2023/06/29 07:56:08;;;;;;;34.85;23.65;;;;;;;;;;5084663;28;20508;-71
2023/06/29 07:58:34;;;;;;;33.87;24.00;;;;;;;;;;5085853;28;20816;-71
2023/06/29 08:01:01;;;;;;;32.03;23.10;;;;;;;;;;5087019;28;20455;-71
2023/06/29 08:03:27;;;;;;;34.25;23.05;;;;;;;;;;5090508;28;20775;-71
2023/06/29 08:05:53;;;;;;;34.70;23.73;;;;;;;;;;5090388;28;20486;-71
2023/06/29 08:08:20;;;;;;;33.80;22.48;;;;;;;;;;5092050;28;20425;-71
2023/06/29 08:10:46;;;;;;;30.75;22.15;;;;;;;;;;5089983;28;20455;-71
2023/06/29 08:13:12;;;;;;;30.65;22.80;;;21.40;99.90;;;;;;5085226;28;20421;-71
2023/06/29 08:15:38;;;;;;;30.70;22.25;;;;;;;;;;5084727;28;20414;-71
2023/06/29 08:18:05;;;;;;;32.75;23.45;;;;;;;;;;5086181;28;20441;-69
2023/06/29 08:20:34;;;;;;;32.67;22.30;;;;;;;;;;5067829;28;20418;-71
2023/06/29 08:23:00;;;;;;;33.00;22.15;;;;;;;;;;5087562;28;20434;-71
2023/06/29 08:25:26;;;;;;;31.77;22.48;;;21.40;99.90;;;;;;5068416;28;20425;-71
2023/06/29 08:27:51;;;;;;;36.53;22.60;;;21.50;99.90;;;;;;5065081;28;20418;-71
2023/06/29 08:30:17;;;;;;;32.35;22.00;;;;;;;;;;5065042;28;20454;-72
2023/06/29 08:32:45;;;;;;;33.30;22.42;;;;;;;;;;5081634;28;20619;-72
2023/06/29 08:35:11;;;;;;;34.08;22.45;;;;;;;;;;5085525;28;20410;-72
2023/06/29 08:37:37;;;;;;;31.85;23.70;;;;;;;;;;5086357;28;20464;-72
2023/06/29 08:40:04;;;;;;;32.70;22.83;;;21.90;99.90;;;;;;5082148;28;20933;-72
2023/06/29 08:42:30;;;;;;;33.45;22.73;;;21.90;99.90;;;;;;5087898;28;20421;-71
2023/06/29 08:44:56;;;;;;;34.67;25.33;;;;;;;;;;5080267;28;20423;-71
2023/06/29 08:47:24;;;;;;;32.20;23.92;;;21.90;99.90;;;;;;5087392;28;20432;-72
2023/06/29 08:49:54;;;;;;;33.25;24.45;;;22.00;99.90;;;;;;5087774;28;20505;-71
2023/06/29 08:52:22;;;;;;;31.23;22.83;;;;;;;;;;5090346;28;20512;-71
2023/06/29 08:54:48;;;;;;;32.75;23.58;;;21.50;99.90;;;;;;5069965;28;20418;-72
2023/06/29 08:57:15;;;;;;;30.30;23.02;;;21.90;99.90;;;;;;5086006;28;20412;-72
2023/06/29 08:59:41;;;;;;;31.83;23.33;;;21.80;99.90;;;;;;5081730;28;20737;-71
2023/06/29 09:02:07;;;;;;;31.05;22.73;;;;;;;;;;5089767;28;20497;-71
2023/06/29 09:04:33;;;;;;;30.08;22.13;;;21.70;99.90;;;;;;5089122;28;20422;-71
2023/06/29 09:06:58;;;;;;;30.53;21.73;;;21.80;99.90;;;;;;5088424;28;20755;-71
2023/06/29 09:09:24;;;;;;;29.55;21.98;;;21.50;99.90;;;;;;5074607;28;20427;-70
2023/06/29 09:11:51;;;;;;;30.23;22.83;;;;;;;;;;5081779;28;20410;-75
2023/06/29 09:14:17;;;;;;;32.17;22.50;;;;;;;;;;5081177;28;20447;-75
2023/06/29 09:16:51;;;;;;;31.15;22.45;;;21.80;99.90;;;;;;5069327;28;20442;-76
2023/06/29 09:19:18;;;;;;;30.48;22.25;;;;;;;;;;5089077;28;20920;-76
2023/06/29 09:21:47;;;;;;;31.42;21.92;;;21.70;99.90;;;;;;5084317;28;20903;-76
2023/06/29 09:24:17;;;;;;;30.10;22.05;;;;;;;;;;5081827;28;20441;-76
2023/06/29 09:26:43;;;;;;;28.45;21.73;;;;;;;;;;5073975;28;20410;-75
2023/06/29 09:29:09;;;;;;;29.40;21.35;;;21.80;99.90;;;;;;5074107;28;20467;-75
2023/06/29 09:31:38;;;;;;;28.38;20.55;;;21.90;99.90;;;;;;5081399;28;20441;-75
2023/06/29 09:34:19;;;;;;;27.15;20.77;;;22.00;99.90;;;;;;5079933;28;20422;-75
2023/06/29 09:36:46;;;;;;;28.33;21.67;;;;;;;;;;5086022;28;20475;-75
2023/06/29 09:39:12;;;;;;;27.88;21.48;;;22.20;99.90;;;;;;5081029;28;20418;-74
2023/06/29 09:41:51;;;;;;;28.27;21.00;;;;;;;;;;5087443;28;20465;-75
2023/06/29 09:44:21;;;;;;;28.92;21.25;;;22.10;99.90;;;;;;5086763;28;20450;-75
2023/06/29 09:47:04;;;;;;;28.92;21.65;;;21.70;99.90;;;;;;5091266;28;20418;-75
2023/06/29 09:49:30;;;;;;;30.58;22.55;;;;;;;;;;5085482;28;21042;-75
2023/06/29 09:52:05;;;;;;;27.70;21.92;;;21.70;99.90;;;;;;5106811;27;20414;-75
2023/06/29 09:54:34;;;;;;;28.00;22.23;;;21.60;99.90;;;;;;5081324;28;20507;-75
2023/06/29 09:57:02;;;;;;;30.60;22.20;;;;;;;;;;5083668;28;20456;-75
2023/06/29 09:59:29;;;;;;;31.75;23.27;;;;;;;;;;5088276;28;20489;-75
2023/06/29 10:01:55;;;;;;;27.70;20.93;;;;;;;;;;5065836;28;20485;-75
2023/06/29 10:04:21;;;;;;;32.83;22.98;;;21.30;99.90;;;;;;5090094;28;20465;-75
2023/06/29 10:06:48;;;;;;;29.43;23.07;;;;;;;;;;5089705;28;20441;-75
2023/06/29 10:09:19;;;;;;;28.52;21.30;;;;;;;;;;5078578;28;20514;-75
2023/06/29 10:11:50;;;;;;;29.00;21.98;;;21.40;99.90;;;;;;5084458;28;20962;-75
2023/06/29 10:14:19;;;;;;;31.88;22.05;;;21.20;99.90;;;;;;5083641;28;20433;-75
2023/06/29 10:16:52;;;;;;;30.08;22.35;;;21.20;99.90;;;;;;5086348;28;20422;-75
2023/06/29 10:19:19;;;;;;;29.13;21.80;;;;;;;;;;5105082;27;20437;-74
2023/06/29 10:21:46;;;;;;;28.52;20.95;;;;;;;;;;5085994;28;20544;-75
2023/06/29 10:24:14;;;;;;;26.77;20.00;;;;;;;;;;5083569;28;20412;-75
2023/06/29 10:26:41;;;;;;;26.52;19.90;;;21.60;99.90;;;;;;5079616;28;20432;-75
2023/06/29 10:29:09;;;;;;;26.83;20.20;;;;;;;;;;5084192;28;20824;-75
2023/06/29 10:31:35;;;;;;;27.80;21.38;;;;;;;;;;5083768;28;20505;-75
2023/06/29 10:34:02;;;;;;;28.77;21.52;;;;;;;;;;5087544;28;20426;-74
2023/06/29 10:36:43;;;;;;;31.15;22.13;;;;;;;;;;5087927;28;20417;-76
2023/06/29 10:39:44;;;;;;;31.38;21.60;;;22.20;99.90;;;;;;5084805;28;20892;-75
2023/06/29 10:42:22;;;;;;;30.45;23.48;;;;;;;;;;5085052;28;20506;-76
2023/06/29 10:44:48;;;;;;;29.13;23.13;;;22.40;99.90;;;;;;5089752;28;20413;-75
2023/06/29 10:47:38;;;;;;;29.40;22.50;;;22.50;99.90;;;;;;5082783;28;20421;-75
2023/06/29 10:50:10;;;;;;;30.67;23.58;;;22.50;99.90;;;;;;5070152;28;20424;-75
2023/06/29 10:52:36;;;;;;;29.52;22.67;;;;;;;;;;5079571;28;20511;-75
2023/06/29 10:55:18;;;;;;;31.27;22.85;;;;;;;;;;5085919;28;20410;-75
2023/06/29 10:58:08;;;;;;;31.42;22.80;;;22.70;99.90;;;;;;5064547;28;20497;-75
2023/06/29 11:00:34;;;;;;;30.63;23.10;;;;;;;;;;5074060;28;20422;-74
2023/06/29 11:03:00;;;;;;;28.45;22.52;;;;;;;;;;5076603;28;20422;-74
2023/06/29 11:05:28;;;;;;;30.85;23.65;;;;;;;;;;5074859;28;20497;-74
2023/06/29 11:07:53;;;;;;;32.40;24.80;;;22.20;99.90;;;;;;5076878;28;20816;-74
2023/06/29 11:10:20;;;;;;;32.77;23.83;;;;;;;;;;5064464;28;20414;-75
2023/06/29 11:12:49;;;;;;;33.40;25.17;;;22.50;99.90;;;;;;5085888;28;20418;-75
2023/06/29 11:15:17;;;;;;;34.17;26.13;;;22.60;99.90;;;;;;5078002;28;20398;-75
2023/06/29 11:17:43;;;;;;;33.85;25.75;;;22.60;99.90;;;;;;5086690;28;20428;-75
2023/06/29 11:20:13;;;;;;;33.30;25.05;;;;;;;;;;5061806;28;21049;-73
2023/06/29 11:22:41;;;;;;;33.25;25.33;;;;;;;;;;5069277;28;20425;-74
2023/06/29 11:25:08;;;;;;;35.15;26.05;;;22.80;99.90;;;;;;5072027;28;20426;-74
2023/06/29 11:27:34;;;;;;;33.35;26.25;;;;;;;;;;5087912;28;20464;-73
2023/06/29 11:30:00;;;;;;;33.38;25.92;;;;;;;;;;5092453;28;20462;-74
2023/06/29 11:32:29;;;;;;;35.67;26.48;;;22.80;99.90;;;;;;5089847;28;20422;-74
2023/06/29 11:35:02;;;;;;;33.88;25.75;;;;;;;;;;5089821;28;20420;-74
2023/06/29 11:37:28;;;;;;;34.58;26.10;;;22.70;99.90;;;;;;5089607;28;20425;-73
2023/06/29 11:39:54;;;;;;;34.00;26.40;;;22.90;99.90;;;;;;5099428;28;20434;-74
2023/06/29 11:42:23;;;;;;;36.15;26.42;;;;;;;;;;5086147;28;20421;-74
2023/06/29 11:44:51;;;;;;;37.40;24.87;;;;;;;;;;5073992;28;20573;-73
2023/06/29 11:47:19;;;;;;;32.20;24.52;;;;;;;;;;5080650;28;20825;-74
2023/06/29 11:49:49;;;;;;;34.42;26.00;;;23.10;99.90;;;;;;5088641;28;20425;-73
2023/06/29 11:52:15;;;;;;;33.63;25.35;;;;;;;;;;5104536;27;20417;-73
2023/06/29 11:54:42;;;;;;;34.53;25.75;;;23.60;99.90;;;;;;5090758;28;20409;-73
2023/06/29 11:57:08;;;;;;;35.85;26.17;;;;;;;;;;5083630;28;20474;-74
2023/06/29 11:59:39;;;;;;;35.25;26.58;;;24.00;99.90;;;;;;5088760;28;20418;-74
2023/06/29 12:02:04;;;;;;;34.88;26.35;;;24.50;99.90;;;;;;5093496;28;20410;-73
2023/06/29 12:04:31;;;;;;;33.63;25.70;;;;;;;;;;5070966;28;20485;-73
2023/06/29 12:06:56;;;;;;;33.28;26.13;;;24.60;99.90;;;;;;5086117;28;20421;-74
2023/06/29 12:09:32;;;;;;;33.57;26.07;;;24.60;99.90;;;;;;5079057;28;20439;-74
2023/06/29 12:11:59;;;;;;;33.60;26.05;;;24.60;99.90;;;;;;5108799;28;20505;-74
2023/06/29 12:14:45;;;;;;;32.95;24.38;;;;;;;;;;5089538;28;20909;-74
2023/06/29 12:17:20;;;;;;;30.33;23.92;;;25.00;99.90;;;;;;5090682;28;20434;-75
2023/06/29 12:19:52;;;;;;;31.50;22.92;;;24.90;99.90;;;;;;5092110;28;20485;-74
2023/06/29 12:22:17;;;;;;;30.25;22.85;;;24.80;99.90;;;;;;5080786;28;20770;-74
2023/06/29 12:24:51;;;;;;;36.80;24.23;;;;;;;;;;5073421;28;20414;-74
2023/06/29 12:27:17;;;;;;;34.38;25.05;;;25.20;99.90;;;;;;5074536;28;20446;-75
2023/06/29 12:29:43;;;;;;;35.90;26.20;;;;;;;;;;5073914;28;20756;-75
2023/06/29 12:32:09;;;;;;;35.50;25.95;;;;;;;;;;5072977;28;20462;-75
2023/06/29 12:34:34;;;;;;;34.50;24.92;;;25.10;99.90;;;;;;5081525;28;20430;-75
2023/06/29 12:37:02;;;;;;;34.77;24.77;;;25.20;99.90;;;;;;5079733;28;20936;-75
2023/06/29 12:39:28;;;;;;;33.50;24.83;;;25.10;99.90;;;;;;5080726;28;20418;-75
2023/06/29 12:41:55;;;;;;;33.50;25.73;;;;;;;;;;5074907;28;20497;-75
2023/06/29 12:44:21;;;;;;;32.17;24.38;;;24.80;99.90;;;;;;5084089;28;21012;-75
2023/06/29 12:46:46;;;;;;;34.87;25.83;;;25.20;99.90;;;;;;5073195;28;20516;-75
2023/06/29 12:49:12;;;;;;;34.80;26.17;;;25.10;99.90;;;;;;5056457;28;20983;-75
2023/06/29 12:51:37;;;;;;;40.73;26.70;;;25.50;99.90;;;;;;5086145;28;20426;-75
2023/06/29 12:54:05;;;;;;;36.58;25.83;;;;;;;;;;5087871;28;20425;-75
2023/06/29 12:56:30;;;;;;;34.92;25.60;;;25.10;99.90;;;;;;5089291;28;20925;-74
2023/06/29 12:58:56;;;;;;;36.22;26.02;;;;;;;;;;5091395;28;20436;-74
2023/06/29 13:01:22;;;;;;;37.95;25.48;;;25.60;99.90;;;;;;5087448;28;20781;-74
2023/06/29 13:03:48;;;;;;;32.37;25.30;;;;;;;;;;5089270;28;20936;-75
2023/06/29 13:06:14;;;;;;;32.47;24.27;;;;;;;;;;5084539;28;20484;-74
2023/06/29 13:08:40;;;;;;;33.77;24.80;;;25.70;99.90;;;;;;5082972;28;20963;-75
2023/06/29 13:11:06;;;;;;;37.63;24.75;;;25.30;99.90;;;;;;5058124;28;20421;-74
2023/06/29 13:13:32;;;;;;;33.35;24.40;;;25.20;99.90;;;;;;5090082;28;20842;-75
2023/06/29 13:15:58;;;;;;;32.53;24.00;;;;;;;;;;5066974;28;20505;-74
2023/06/29 13:18:24;;;;;;;31.40;22.00;;;24.70;99.90;;;;;;5088987;28;20928;-75
2023/06/29 13:20:50;;;;;;;29.02;21.60;;;;;;;;;;5081988;28;20507;-75
2023/06/29 13:23:16;;;;;;;31.05;22.88;;;24.30;99.90;;;;;;5074032;28;20468;-75
2023/06/29 13:25:42;;;;;;;31.60;22.60;;;;;;;;;;5060726;28;20434;-75
2023/06/29 13:28:08;;;;;;;33.63;24.15;;;;;;;;;;5088351;28;20435;-75
2023/06/29 13:30:34;;;;;;;30.35;22.65;;;24.20;99.90;;;;;;5089578;28;20448;-75
2023/06/29 13:33:00;;;;;;;31.02;21.10;;;;;;;;;;5088386;28;20437;-75
2023/06/29 13:35:26;;;;;;;30.35;22.60;;;24.10;99.90;;;;;;5068087;28;20414;-75